Time;durP1;ratioP1;P1;durP2;ratioP2;P2;SDS_P1;SDS_P2;PMS_P1;PMS_P2;Temp;Humidity;BMP_temperature;BMP_pressure;BME280_temperature;BME280_humidity;BME280_pressure;Samples;Min_cycle;Max_cycle;Signal;HPM_P1;HPM_P2
2022/07/17 00:00:44;;;;;;;7.80;2.38;;;10.20;99.90;;;;;;5067399;28;20135;-65
2022/07/17 00:03:11;;;;;;;11.10;3.15;;;10.20;99.90;;;;;;5064646;28;20044;-64
2022/07/17 00:05:37;;;;;;;4.55;2.80;;;10.20;99.90;;;;;;5080827;28;20131;-65
2022/07/17 00:08:06;;;;;;;13.05;3.70;;;10.20;99.90;;;;;;5068927;28;20497;-65
2022/07/17 00:10:33;;;;;;;9.27;4.10;;;10.20;99.90;;;;;;5067676;28;20044;-65
2022/07/17 00:12:59;;;;;;;7.75;3.10;;;10.30;99.90;;;;;;5068924;28;20052;-65
2022/07/17 00:15:24;;;;;;;7.00;2.65;;;10.20;99.90;;;;;;5070488;28;20082;-65
2022/07/17 00:17:50;;;;;;;7.28;3.30;;;10.40;99.90;;;;;;5067821;28;20090;-64
2022/07/17 00:20:15;;;;;;;6.82;2.85;;;10.30;99.90;;;;;;5067847;28;20090;-64
2022/07/17 00:22:43;;;;;;;10.00;3.15;;;10.30;99.90;;;;;;5066617;28;20041;-65
2022/07/17 00:25:09;;;;;;;6.13;2.92;;;10.40;99.90;;;;;;5066776;28;20458;-65
2022/07/17 00:27:35;;;;;;;4.35;2.00;;;10.30;99.90;;;;;;5069350;28;20403;-66
2022/07/17 00:30:01;;;;;;;3.80;2.10;;;10.20;99.90;;;;;;5065218;28;20123;-65
2022/07/17 00:32:27;;;;;;;6.30;2.80;;;10.10;99.90;;;;;;5066771;28;20539;-65
2022/07/17 00:34:53;;;;;;;16.05;1.77;;;10.10;99.90;;;;;;5066547;28;20051;-65
2022/07/17 00:37:18;;;;;;;1.95;1.20;;;9.90;99.90;;;;;;5069044;28;20052;-65
2022/07/17 00:39:44;;;;;;;2.35;1.20;;;9.80;99.90;;;;;;5064717;28;20040;-65
2022/07/17 00:42:13;;;;;;;2.63;1.48;;;9.70;99.90;;;;;;5061494;28;20485;-65
2022/07/17 00:44:42;;;;;;;9.60;1.65;;;9.70;99.90;;;;;;5064447;28;20119;-65
2022/07/17 00:47:17;;;;;;;3.88;1.52;;;9.60;99.90;;;;;;5057469;28;20044;-65
2022/07/17 00:49:43;;;;;;;2.70;1.33;;;9.60;99.90;;;;;;5069862;28;20041;-65
2022/07/17 00:52:10;;;;;;;3.92;1.60;;;9.60;99.90;;;;;;5061222;28;20402;-66
2022/07/17 00:54:38;;;;;;;1.90;1.38;;;9.60;99.90;;;;;;5084231;28;20093;-65
2022/07/17 00:57:07;;;;;;;2.95;1.63;;;9.60;99.90;;;;;;5067795;28;20059;-65
2022/07/17 00:59:34;;;;;;;4.80;2.00;;;9.40;99.90;;;;;;5067947;28;20043;-66
2022/07/17 01:02:02;;;;;;;2.90;1.50;;;9.60;99.90;;;;;;5075417;28;20395;-66
2022/07/17 01:04:28;;;;;;;3.20;1.27;;;9.50;99.90;;;;;;5060052;28;20060;-66
2022/07/17 01:06:54;;;;;;;2.85;1.00;;;9.60;99.90;;;;;;5056196;28;20037;-66
2022/07/17 01:09:19;;;;;;;3.47;1.20;;;9.70;99.90;;;;;;5069592;28;20036;-66
2022/07/17 01:11:45;;;;;;;3.67;2.00;;;9.60;99.90;;;;;;5066419;28;20036;-66
2022/07/17 01:14:11;;;;;;;5.78;1.70;;;9.60;99.90;;;;;;5061022;28;20036;-66
2022/07/17 01:16:37;;;;;;;3.50;1.50;;;9.50;99.90;;;;;;5066924;28;20040;-66
2022/07/17 01:19:02;;;;;;;20.38;1.80;;;9.40;99.90;;;;;;5066215;28;20036;-66
2022/07/17 01:21:43;;;;;;;2.35;0.93;;;9.40;99.90;;;;;;5058444;28;20040;-66
2022/07/17 01:24:09;;;;;;;4.60;1.65;;;9.30;99.90;;;;;;5066769;28;20093;-66
2022/07/17 01:26:34;;;;;;;5.95;3.25;;;9.30;99.90;;;;;;5066677;28;20028;-66
2022/07/17 01:29:00;;;;;;;6.85;3.22;;;9.30;99.90;;;;;;5066466;28;20036;-66
2022/07/17 01:31:26;;;;;;;7.90;3.55;;;9.20;99.90;;;;;;5066660;28;20040;-67
2022/07/17 01:33:52;;;;;;;10.30;3.53;;;9.30;99.90;;;;;;5066246;28;20098;-66
2022/07/17 01:36:24;;;;;;;6.82;2.85;;;9.40;99.90;;;;;;5061442;28;20094;-66
2022/07/17 01:38:50;;;;;;;4.43;2.40;;;9.40;99.90;;;;;;5064341;28;20033;-66
2022/07/17 01:41:16;;;;;;;3.25;1.95;;;9.40;99.90;;;;;;5066558;28;20047;-66
2022/07/17 01:43:42;;;;;;;3.63;1.63;;;9.40;99.90;;;;;;5066296;28;20124;-66
2022/07/17 01:46:08;;;;;;;4.50;2.20;;;9.40;99.90;;;;;;5065996;28;20135;-66
2022/07/17 01:48:34;;;;;;;4.90;2.33;;;9.30;99.90;;;;;;5066394;28;20394;-66
2022/07/17 01:50:59;;;;;;;2.20;1.42;;;9.30;99.90;;;;;;5067134;28;20046;-66
2022/07/17 01:53:25;;;;;;;3.58;1.80;;;9.20;99.90;;;;;;5064479;28;20077;-66
2022/07/17 01:55:51;;;;;;;2.63;1.83;;;9.30;99.90;;;;;;5066182;28;20036;-66
2022/07/17 01:58:17;;;;;;;2.90;2.08;;;9.20;99.90;;;;;;5078819;28;20033;-66
2022/07/17 02:00:43;;;;;;;3.17;1.83;;;9.20;99.90;;;;;;5062679;28;20578;-66
2022/07/17 02:03:08;;;;;;;4.20;2.25;;;9.20;99.90;;;;;;5058844;28;20037;-67
2022/07/17 02:05:34;;;;;;;4.38;1.85;;;9.10;99.90;;;;;;5067618;28;20032;-66
2022/07/17 02:08:00;;;;;;;2.63;1.30;;;9.10;99.90;;;;;;5066052;28;20075;-66
2022/07/17 02:10:26;;;;;;;0.82;0.80;;;9.10;99.90;;;;;;5071986;28;20029;-66
2022/07/17 02:12:52;;;;;;;1.50;1.00;;;8.90;99.90;;;;;;5050199;28;20055;-66
2022/07/17 02:15:17;;;;;;;2.38;1.23;;;8.90;99.90;;;;;;5070018;28;20029;-66
2022/07/17 02:17:43;;;;;;;1.20;1.10;;;8.90;99.90;;;;;;5067187;28;20040;-66
2022/07/17 02:20:11;;;;;;;2.97;1.50;;;8.90;99.90;;;;;;5069207;28;20270;-67
2022/07/17 02:22:38;;;;;;;3.03;1.55;;;9.00;99.90;;;;;;5070185;28;20067;-66
2022/07/17 02:25:04;;;;;;;2.10;1.40;;;9.00;99.90;;;;;;5067699;28;20044;-66
2022/07/17 02:27:34;;;;;;;3.85;1.73;;;8.90;99.90;;;;;;5068447;28;20040;-66
2022/07/17 02:30:03;;;;;;;3.22;1.58;;;9.00;99.90;;;;;;5062245;28;20055;-66
2022/07/17 02:32:28;;;;;;;2.35;1.63;;;9.00;99.90;;;;;;5060366;28;20113;-66
2022/07/17 02:34:54;;;;;;;4.38;1.98;;;9.00;99.90;;;;;;5066636;28;20072;-66
2022/07/17 02:37:19;;;;;;;2.97;2.20;;;9.00;99.90;;;;;;5066002;28;20052;-66
2022/07/17 02:39:54;;;;;;;3.22;2.25;;;9.00;99.90;;;;;;5066029;28;20459;-66
2022/07/17 02:42:24;;;;;;;4.70;3.08;;;9.00;99.90;;;;;;5068427;28;20025;-66
2022/07/17 02:44:50;;;;;;;4.45;1.40;;;8.90;99.90;;;;;;5069116;28;20040;-66
2022/07/17 02:47:29;;;;;;;2.38;1.45;;;8.80;99.90;;;;;;5069273;28;20066;-66
2022/07/17 02:49:55;;;;;;;4.03;2.15;;;8.80;99.90;;;;;;5068836;28;20698;-66
2022/07/17 02:52:21;;;;;;;2.65;1.85;;;8.80;99.90;;;;;;5068855;28;20066;-66
2022/07/17 02:54:47;;;;;;;3.22;2.50;;;8.80;99.90;;;;;;5070478;28;20123;-66
2022/07/17 02:57:13;;;;;;;3.40;2.00;;;8.90;99.90;;;;;;5062895;28;20495;-66
2022/07/17 02:59:39;;;;;;;5.82;2.40;;;8.80;99.90;;;;;;5063011;28;20044;-66
2022/07/17 03:02:05;;;;;;;3.67;2.58;;;8.80;99.90;;;;;;5069477;28;20391;-66
2022/07/17 03:04:31;;;;;;;3.97;2.40;;;8.80;99.90;;;;;;5068933;28;20032;-66
2022/07/17 03:06:56;;;;;;;4.55;2.53;;;8.70;99.90;;;;;;5067884;28;20040;-66
2022/07/17 03:09:22;;;;;;;3.83;1.98;;;8.80;99.90;;;;;;5069131;28;20040;-66
2022/07/17 03:11:48;;;;;;;3.08;1.77;;;8.70;99.90;;;;;;5069375;28;20028;-66
2022/07/17 03:14:13;;;;;;;1.92;1.63;;;8.60;99.90;;;;;;5051769;28;20045;-66
2022/07/17 03:16:40;;;;;;;4.25;1.90;;;8.60;99.90;;;;;;5063213;28;20037;-66
2022/07/17 03:19:06;;;;;;;6.00;2.53;;;8.60;99.90;;;;;;5065106;28;20036;-66
2022/07/17 03:21:31;;;;;;;9.00;2.13;;;8.60;99.90;;;;;;5068230;28;20131;-65
2022/07/17 03:23:57;;;;;;;2.33;1.70;;;8.50;99.90;;;;;;5064799;28;20043;-65
2022/07/17 03:26:22;;;;;;;1.42;1.25;;;8.50;99.90;;;;;;5065717;28;20045;-65
2022/07/17 03:28:48;;;;;;;2.00;1.30;;;8.30;99.90;;;;;;5072748;28;20132;-65
2022/07/17 03:31:14;;;;;;;1.73;1.42;;;8.30;99.90;;;;;;5067446;28;20044;-65
2022/07/17 03:33:39;;;;;;;85.72;4.28;;;8.20;99.90;;;;;;5058762;28;20097;-65
2022/07/17 03:36:06;;;;;;;3.83;2.03;;;8.10;99.90;;;;;;5069528;28;20119;-65
2022/07/17 03:38:32;;;;;;;3.40;2.10;;;8.10;99.90;;;;;;5067660;28;20097;-65
2022/07/17 03:40:57;;;;;;;6.50;2.30;;;8.10;99.90;;;;;;5068956;28;20449;-65
2022/07/17 03:43:23;;;;;;;5.20;2.50;;;8.20;99.90;;;;;;5070235;28;20040;-65
2022/07/17 03:45:48;;;;;;;6.57;3.35;;;8.20;99.90;;;;;;5065180;28;20033;-65
2022/07/17 03:48:14;;;;;;;5.40;2.90;;;8.20;99.90;;;;;;5066372;28;20036;-65
2022/07/17 03:50:40;;;;;;;5.03;3.33;;;8.30;99.90;;;;;;5069765;28;20067;-65
2022/07/17 03:53:05;;;;;;;4.80;2.90;;;8.40;99.90;;;;;;5072813;28;20503;-65
2022/07/17 03:55:31;;;;;;;5.22;2.70;;;8.40;99.90;;;;;;5068343;28;20479;-64
2022/07/17 03:57:56;;;;;;;3.65;2.70;;;8.50;99.90;;;;;;5057018;28;20507;-65
2022/07/17 04:00:22;;;;;;;3.63;2.50;;;8.40;99.90;;;;;;5064764;28;20410;-65
2022/07/17 04:02:48;;;;;;;5.10;2.00;;;8.60;99.90;;;;;;5068159;28;20055;-65
2022/07/17 04:05:13;;;;;;;3.15;1.70;;;8.50;99.90;;;;;;5069395;28;20032;-65
2022/07/17 04:07:40;;;;;;;3.97;1.60;;;8.60;99.90;;;;;;5051589;28;20043;-65
2022/07/17 04:10:08;;;;;;;4.75;2.33;;;8.60;99.90;;;;;;5069150;28;20037;-65
2022/07/17 04:12:35;;;;;;;5.07;2.63;;;8.70;99.90;;;;;;5064831;28;20059;-65
2022/07/17 04:15:01;;;;;;;3.95;2.35;;;8.70;99.90;;;;;;5066701;28;20040;-65
2022/07/17 04:17:26;;;;;;;4.28;2.60;;;8.70;99.90;;;;;;5062900;28;20591;-65
2022/07/17 04:19:52;;;;;;;4.97;2.40;;;8.80;99.90;;;;;;5067890;28;20132;-65
2022/07/17 04:22:18;;;;;;;4.55;2.47;;;8.90;99.90;;;;;;5063449;28;20418;-65
2022/07/17 04:24:44;;;;;;;5.30;2.47;;;8.90;99.90;;;;;;5066969;28;20114;-65
2022/07/17 04:27:10;;;;;;;4.75;2.67;;;8.90;99.90;;;;;;5072687;28;20075;-65
2022/07/17 04:29:36;;;;;;;5.05;3.05;;;9.00;99.90;;;;;;5068466;28;20324;-65
2022/07/17 04:32:02;;;;;;;7.28;2.85;;;9.10;99.90;;;;;;5066532;28;20041;-65
2022/07/17 04:34:29;;;;;;;7.32;3.40;;;9.20;99.90;;;;;;5063102;28;20044;-65
2022/07/17 04:36:54;;;;;;;9.55;3.80;;;9.20;99.90;;;;;;5063476;28;20037;-65
2022/07/17 04:39:20;;;;;;;4.80;3.30;;;9.20;99.90;;;;;;5065281;28;20047;-66
2022/07/17 04:41:46;;;;;;;12.55;4.32;;;9.30;99.90;;;;;;5063303;28;20041;-66
2022/07/17 04:44:11;;;;;;;7.00;4.28;;;9.40;99.90;;;;;;5067139;28;20051;-66
2022/07/17 04:46:37;;;;;;;8.48;4.20;;;9.50;99.90;;;;;;5061544;28;20036;-66
2022/07/17 04:49:02;;;;;;;10.80;4.38;;;9.60;99.90;;;;;;5067162;28;20197;-66
2022/07/17 04:51:28;;;;;;;7.55;3.97;;;9.60;99.90;;;;;;5066232;28;20047;-66
2022/07/17 04:53:54;;;;;;;10.18;4.50;;;9.60;99.90;;;;;;5064012;28;20044;-66
2022/07/17 04:56:20;;;;;;;15.77;4.63;;;9.70;99.90;;;;;;5066528;28;20044;-66
2022/07/17 04:58:46;;;;;;;9.65;4.82;;;9.80;99.90;;;;;;5065416;28;20040;-66
2022/07/17 05:01:11;;;;;;;13.30;5.13;;;10.00;99.90;;;;;;5066212;28;20040;-67
2022/07/17 05:03:37;;;;;;;17.58;5.50;;;10.10;99.90;;;;;;5058169;28;20036;-66
2022/07/17 05:06:03;;;;;;;13.85;6.50;;;10.30;99.90;;;;;;5061611;28;20060;-68
2022/07/17 05:08:29;;;;;;;16.85;6.20;;;10.30;99.90;;;;;;5063525;28;20040;-66
2022/07/17 05:10:54;;;;;;;12.40;6.63;;;10.40;99.90;;;;;;5067620;28;20044;-66
2022/07/17 05:13:20;;;;;;;12.95;6.22;;;10.50;99.90;;;;;;5067043;28;20040;-66
2022/07/17 05:15:46;;;;;;;15.40;6.82;;;10.60;99.90;;;;;;5050140;28;20041;-66
2022/07/17 05:18:11;;;;;;;16.42;7.00;;;10.70;99.90;;;;;;5058057;28;20048;-66
2022/07/17 05:20:39;;;;;;;21.33;7.43;;;10.80;99.90;;;;;;5077795;28;20068;-66
2022/07/17 05:23:05;;;;;;;17.15;7.25;;;10.90;99.90;;;;;;5061843;28;20243;-66
2022/07/17 05:25:31;;;;;;;19.08;7.50;;;11.00;99.90;;;;;;5066273;28;20402;-66
2022/07/17 05:27:57;;;;;;;15.93;7.60;;;11.10;99.90;;;;;;5065944;28;20060;-65
2022/07/17 05:34:03;;;;;;;19.33;7.38;;;11.20;99.90;;;;;;5077242;28;20498;-68
2022/07/17 05:36:29;;;;;;;22.98;9.15;;;11.30;99.90;;;;;;5075990;28;20036;-68
2022/07/17 05:38:54;;;;;;;24.13;9.80;;;11.40;99.90;;;;;;5092651;28;20036;-68
2022/07/17 05:41:20;;;;;;;23.77;10.02;;;11.60;99.90;;;;;;5092931;28;20441;-68
2022/07/17 05:43:46;;;;;;;24.38;9.95;;;11.60;99.90;;;;;;5077119;28;20068;-68
2022/07/17 05:46:11;;;;;;;21.08;9.75;;;11.70;99.90;;;;;;5075679;28;20036;-67
2022/07/17 05:48:37;;;;;;;24.98;9.25;;;11.70;99.90;;;;;;5076006;28;20044;-67
2022/07/17 05:51:02;;;;;;;24.38;10.52;;;11.90;99.90;;;;;;5075596;28;20139;-67
2022/07/17 05:53:28;;;;;;;23.98;9.88;;;11.90;99.90;;;;;;5075629;28;20051;-67
2022/07/17 05:55:54;;;;;;;21.85;9.55;;;12.10;99.90;;;;;;5075505;28;20115;-68
2022/07/17 05:58:20;;;;;;;29.70;9.20;;;12.10;99.90;;;;;;5075388;28;20080;-67
2022/07/17 06:00:45;;;;;;;25.13;9.90;;;12.30;99.90;;;;;;5075788;28;20085;-68
2022/07/17 06:03:11;;;;;;;22.70;8.50;;;12.40;99.90;;;;;;5092352;28;20041;-68
2022/07/17 06:05:37;;;;;;;21.70;8.73;;;12.50;99.90;;;;;;5058699;28;20039;-68
2022/07/17 06:08:03;;;;;;;20.63;8.00;;;12.60;99.90;;;;;;5075318;28;20104;-67
2022/07/17 06:10:29;;;;;;;16.70;7.10;;;12.70;99.90;;;;;;5075300;28;20135;-67
2022/07/17 06:12:56;;;;;;;22.17;7.55;;;12.90;99.90;;;;;;5075198;28;20094;-67
2022/07/17 06:15:23;;;;;;;23.58;8.10;;;13.00;99.90;;;;;;5075228;28;20071;-67
2022/07/17 06:21:29;;;;;;;18.08;7.03;;;13.40;99.90;;;;;;5076322;28;20121;-66
2022/07/17 06:23:55;;;;;;;16.08;6.82;;;13.50;99.90;;;;;;5074987;28;20068;-67
2022/07/17 06:26:20;;;;;;;22.83;6.53;;;13.70;99.90;;;;;;5058661;28;20036;-67
2022/07/17 06:28:46;;;;;;;20.27;6.55;;;13.80;99.90;;;;;;5074954;28;20097;-68
2022/07/17 06:31:11;;;;;;;21.75;7.05;;;14.10;99.90;;;;;;5074984;28;20055;-67
2022/07/17 06:33:38;;;;;;;21.90;5.43;;;14.30;99.90;;;;;;5074784;28;20127;-67
2022/07/17 06:36:04;;;;;;;20.25;5.43;;;14.40;99.90;;;;;;5074762;28;20045;-66
2022/07/17 06:38:29;;;;;;;18.17;5.25;;;14.50;99.90;;;;;;5073864;28;20041;-66
2022/07/17 06:40:55;;;;;;;10.77;4.80;;;14.60;99.90;;;;;;5074282;28;20034;-67
2022/07/17 06:43:21;;;;;;;18.63;4.50;;;14.70;99.90;;;;;;5074736;28;20380;-66
2022/07/17 06:45:46;;;;;;;14.52;4.50;;;14.80;99.90;;;;;;5058002;28;20040;-66
2022/07/17 06:48:12;;;;;;;14.65;4.13;;;15.00;99.90;;;;;;5075703;28;20033;-66
2022/07/17 06:50:37;;;;;;;17.63;3.30;;;15.10;99.90;;;;;;5074488;28;20045;-67
2022/07/17 06:53:03;;;;;;;11.80;3.13;;;15.20;99.90;;;;;;5074703;28;20442;-67
2022/07/17 06:55:29;;;;;;;9.43;2.72;;;15.30;99.90;;;;;;5074513;28;20079;-67
2022/07/17 06:57:54;;;;;;;12.20;2.72;;;15.50;99.90;;;;;;5091109;28;20048;-67
2022/07/17 07:00:20;;;;;;;13.15;3.47;;;15.50;99.90;;;;;;5074401;28;20491;-67
2022/07/17 07:02:45;;;;;;;12.68;3.80;;;15.60;99.90;;;;;;5074689;28;20502;-66
2022/07/17 07:05:11;;;;;;;15.27;3.75;;;15.60;99.90;;;;;;5074252;28;20045;-66
2022/07/17 07:07:37;;;;;;;12.50;2.78;;;15.70;99.90;;;;;;5075630;28;20044;-67
2022/07/17 07:13:43;;;;;;;16.63;3.15;;;16.00;99.90;;;;;;5075449;28;20401;-67
2022/07/17 07:19:49;;;;;;;11.30;2.38;;;16.20;99.90;;;;;;5075222;28;20047;-67
2022/07/17 07:25:56;;;;;;;12.25;2.53;;;16.30;99.90;;;;;;5075146;28;20063;-66
2022/07/17 07:32:02;;;;;;;9.88;2.90;;;16.50;99.90;;;;;;5075019;28;20139;-66
2022/07/17 07:38:09;;;;;;;9.57;2.33;;;16.60;99.90;;;;;;5054821;28;20110;-68
2022/07/17 07:40:36;;;;;;;8.90;2.08;;;16.70;99.90;;;;;;5053565;28;20041;-68
2022/07/17 07:43:02;;;;;;;17.02;2.70;;;16.70;99.90;;;;;;5053815;28;20124;-68
2022/07/17 07:45:28;;;;;;;12.02;3.67;;;16.80;99.90;;;;;;5053354;28;20037;-67
2022/07/17 07:47:54;;;;;;;14.27;3.33;;;16.90;99.90;;;;;;5053566;28;20048;-68
2022/07/17 07:50:23;;;;;;;19.25;2.78;;;17.00;99.90;;;;;;5052858;28;20103;-70
2022/07/17 07:52:49;;;;;;;13.05;2.30;;;17.00;99.90;;;;;;5066077;28;20081;-69
2022/07/17 07:55:15;;;;;;;19.40;2.33;;;17.00;99.90;;;;;;5073249;28;20510;-69
2022/07/17 07:57:41;;;;;;;9.50;2.60;;;17.00;99.90;;;;;;5073456;28;20066;-68
2022/07/17 08:00:09;;;;;;;11.43;2.28;;;17.10;99.90;;;;;;5073450;28;20124;-68
2022/07/17 08:02:35;;;;;;;10.52;2.63;;;17.20;99.90;;;;;;5073346;28;20040;-68
2022/07/17 08:05:00;;;;;;;10.20;2.45;;;17.30;99.90;;;;;;5073297;28;20036;-71
2022/07/17 08:07:27;;;;;;;10.93;2.60;;;17.50;99.90;;;;;;5056227;28;20036;-70
2022/07/17 08:09:53;;;;;;;9.45;2.63;;;17.50;99.90;;;;;;5070625;28;20445;-69
2022/07/17 08:12:19;;;;;;;14.32;2.70;;;17.40;99.90;;;;;;5072515;28;20033;-68
2022/07/17 08:14:45;;;;;;;10.43;3.28;;;17.50;99.90;;;;;;5074151;28;20043;-68
2022/07/17 08:17:11;;;;;;;13.27;3.03;;;17.60;99.90;;;;;;5072459;28;20040;-69
2022/07/17 08:19:40;;;;;;;10.45;2.85;;;17.80;99.90;;;;;;5071326;28;20075;-68
2022/07/17 08:22:05;;;;;;;15.05;3.15;;;17.90;99.90;;;;;;5071918;28;20491;-69
2022/07/17 08:24:31;;;;;;;18.15;3.20;;;18.00;99.90;;;;;;5072530;28;20069;-69
2022/07/17 08:26:56;;;;;;;13.07;2.90;;;18.10;99.90;;;;;;5072395;28;20454;-70
2022/07/17 08:33:04;;;;;;;11.43;2.60;;;18.10;99.90;;;;;;5069290;28;20159;-66
2022/07/17 08:35:30;;;;;;;12.60;2.53;;;18.20;99.90;;;;;;5061048;28;20480;-69
2022/07/17 08:37:55;;;;;;;11.15;2.58;;;18.30;99.90;;;;;;5060178;28;20041;-70
2022/07/17 08:40:29;;;;;;;10.82;2.60;;;18.40;99.90;;;;;;5062995;28;20466;-69
2022/07/17 08:46:37;;;;;;;13.00;2.92;;;18.50;99.90;;;;;;5066158;28;20027;-69
2022/07/17 08:49:05;;;;;;;12.02;2.20;;;18.60;99.90;;;;;;5061859;28;20036;-68
2022/07/17 08:51:40;;;;;;;10.90;2.80;;;18.60;99.90;;;;;;5062030;28;20134;-70
2022/07/17 08:54:05;;;;;;;7.95;2.53;;;18.70;99.90;;;;;;5070782;28;20544;-69
2022/07/17 08:56:31;;;;;;;9.45;2.50;;;18.70;99.90;;;;;;5066054;28;20119;-66
2022/07/17 08:58:56;;;;;;;17.92;2.80;;;18.80;99.90;;;;;;5060902;28;20051;-70
2022/07/17 09:01:24;;;;;;;10.60;2.67;;;18.80;99.90;;;;;;5059097;28;20059;-68
2022/07/17 09:04:09;;;;;;;8.13;2.05;;;18.90;99.90;;;;;;5051020;28;20040;-70
2022/07/17 09:06:37;;;;;;;8.13;2.30;;;19.00;99.90;;;;;;5081602;28;20024;-70
2022/07/17 09:09:11;;;;;;;14.00;2.60;;;19.20;99.90;;;;;;5051838;28;20076;-69
2022/07/17 09:11:51;;;;;;;11.70;2.30;;;19.20;99.90;;;;;;5061543;28;20390;-70
2022/07/17 09:14:18;;;;;;;8.82;2.53;;;19.20;99.90;;;;;;5063891;28;20070;-67
2022/07/17 09:16:55;;;;;;;14.25;3.13;;;19.30;99.90;;;;;;5051666;28;20394;-69
2022/07/17 09:19:29;;;;;;;9.95;2.85;;;19.40;99.90;;;;;;5055030;28;20483;-70
2022/07/17 09:22:12;;;;;;;13.55;2.42;;;19.60;99.90;;;;;;5068297;28;20135;-71
2022/07/17 09:28:18;;;;;;;10.20;2.30;;;19.50;99.90;;;;;;5059631;28;20455;-69
2022/07/17 09:30:47;;;;;;;10.85;2.47;;;19.50;99.90;;;;;;5071853;28;20123;-67
2022/07/17 09:33:17;;;;;;;13.07;2.80;;;19.60;99.90;;;;;;5054506;28;20036;-70
2022/07/17 09:35:50;;;;;;;7.60;2.25;;;19.80;99.90;;;;;;5071661;28;20098;-70
2022/07/17 09:38:30;;;;;;;4.70;2.08;;;19.90;99.90;;;;;;5071101;28;20059;-70
2022/07/17 09:41:09;;;;;;;11.15;2.80;;;20.00;99.90;;;;;;5071762;28;20064;-68
2022/07/17 09:43:58;;;;;;;8.18;2.05;;;20.20;99.90;;;;;;5070798;28;20068;-71
2022/07/17 09:46:41;;;;;;;10.52;2.63;;;20.40;99.90;;;;;;5059568;28;20078;-69
2022/07/17 09:49:09;;;;;;;7.05;2.10;;;20.50;99.90;;;;;;5081221;28;20040;-71
2022/07/17 09:51:38;;;;;;;13.05;2.72;;;20.50;99.90;;;;;;5059776;28;20550;-71
2022/07/17 09:54:05;;;;;;;14.38;2.53;;;20.50;99.90;;;;;;5050822;28;20044;-71
2022/07/17 09:56:44;;;;;;;8.27;2.70;;;20.60;99.90;;;;;;5074608;28;20036;-70
2022/07/17 09:59:56;;;;;;;10.95;2.65;;;20.70;99.90;;;;;;5058934;28;20410;-67
2022/07/17 10:06:03;;;;;;;12.05;3.28;;;20.80;99.90;;;;;;5067026;28;20035;-72
2022/07/17 10:08:37;;;;;;;8.68;2.42;;;20.90;99.90;;;;;;5065021;28;20169;-70
2022/07/17 10:11:05;;;;;;;14.30;2.75;;;21.00;99.90;;;;;;5065473;28;20423;-75
2022/07/17 10:13:31;;;;;;;13.68;2.72;;;20.90;99.90;;;;;;5058162;28;20049;-75
2022/07/17 10:15:58;;;;;;;12.93;2.95;;;20.90;99.90;;;;;;5056122;28;20058;-74
2022/07/17 10:18:34;;;;;;;13.18;2.83;;;20.90;99.90;;;;;;5061999;28;20140;-72
2022/07/17 10:21:14;;;;;;;7.45;2.70;;;21.00;99.90;;;;;;5052926;28;20041;-71
2022/07/17 10:23:42;;;;;;;10.23;2.80;;;21.10;99.90;;;;;;5072512;28;20544;-76
2022/07/17 10:26:08;;;;;;;12.43;2.42;;;21.20;99.90;;;;;;5064084;28;20429;-76
2022/07/17 10:28:44;;;;;;;8.40;2.90;;;21.20;99.90;;;;;;5064081;28;20044;-73
2022/07/17 10:31:22;;;;;;;8.00;2.85;;;21.20;99.90;;;;;;5057310;28;20045;-74
2022/07/17 10:34:17;;;;;;;7.85;3.22;;;21.10;99.90;;;;;;5068782;28;20036;-74
2022/07/17 10:36:44;;;;;;;9.98;2.55;;;21.00;99.90;;;;;;5062751;28;20075;-75
2022/07/17 10:39:11;;;;;;;9.07;2.50;;;21.00;99.90;;;;;;5069447;28;20210;-74
2022/07/17 10:41:38;;;;;;;9.30;2.78;;;21.00;99.90;;;;;;5075435;28;20077;-74
2022/07/17 10:44:04;;;;;;;9.60;2.53;;;21.10;99.90;;;;;;5069322;28;20075;-72
2022/07/17 10:46:29;;;;;;;13.48;2.92;;;21.20;99.90;;;;;;5059499;28;20040;-73
2022/07/17 10:48:56;;;;;;;13.25;2.92;;;21.30;99.90;;;;;;5069965;28;20042;-72
2022/07/17 10:51:24;;;;;;;10.40;3.30;;;21.50;99.90;;;;;;5061705;28;20388;-73
2022/07/17 10:53:50;;;;;;;8.98;2.45;;;21.60;99.90;;;;;;5073377;28;20041;-73
2022/07/17 10:56:17;;;;;;;9.40;3.10;;;21.70;99.90;;;;;;5071426;28;20043;-72
2022/07/17 10:58:44;;;;;;;9.82;2.65;;;21.80;99.90;;;;;;5071130;28;20087;-73
2022/07/17 11:01:15;;;;;;;8.73;3.05;;;21.70;99.90;;;;;;5074436;28;20048;-75
2022/07/17 11:03:45;;;;;;;8.75;2.90;;;21.70;99.90;;;;;;5063209;28;20036;-72
2022/07/17 11:06:11;;;;;;;7.15;2.80;;;21.70;99.90;;;;;;5060665;28;20052;-74
2022/07/17 11:08:41;;;;;;;8.25;2.60;;;21.70;99.90;;;;;;5071893;28;20050;-75
2022/07/17 11:11:07;;;;;;;8.77;2.80;;;21.60;99.90;;;;;;5042180;28;20123;-75
2022/07/17 11:13:33;;;;;;;10.20;2.75;;;21.60;99.90;;;;;;5072196;28;20171;-73
2022/07/17 11:15:58;;;;;;;8.70;2.53;;;21.60;99.90;;;;;;5071005;28;20048;-72
2022/07/17 11:18:24;;;;;;;10.50;2.90;;;21.70;99.90;;;;;;5079997;28;20438;-73
2022/07/17 11:20:51;;;;;;;7.85;2.85;;;21.70;99.90;;;;;;5088335;28;20036;-71
2022/07/17 11:23:17;;;;;;;8.52;3.13;;;21.80;99.90;;;;;;5068827;28;20047;-73
2022/07/17 11:26:05;;;;;;;7.93;2.78;;;21.80;99.90;;;;;;5080176;28;20024;-73
2022/07/17 11:28:33;;;;;;;16.02;3.90;;;21.90;99.90;;;;;;5051542;28;20136;-74
2022/07/17 11:30:59;;;;;;;9.00;3.28;;;21.90;99.90;;;;;;5059813;28;20040;-74
2022/07/17 11:33:25;;;;;;;10.30;2.80;;;21.80;99.90;;;;;;5092221;28;20115;-72
2022/07/17 11:35:51;;;;;;;10.90;2.92;;;21.70;99.90;;;;;;5067619;28;20144;-73
2022/07/17 11:38:27;;;;;;;9.27;3.38;;;21.60;99.90;;;;;;5062051;28;20048;-73
2022/07/17 11:40:53;;;;;;;11.00;3.40;;;21.60;99.90;;;;;;5071189;28;20075;-72
2022/07/17 11:43:19;;;;;;;15.90;2.88;;;21.70;99.90;;;;;;5087906;28;20068;-72
2022/07/17 11:45:45;;;;;;;9.18;3.25;;;21.90;99.90;;;;;;5055293;28;20060;-71
2022/07/17 11:48:11;;;;;;;10.55;2.83;;;22.00;99.90;;;;;;5072781;28;20407;-74
2022/07/17 11:50:37;;;;;;;10.60;2.85;;;22.10;99.90;;;;;;5071230;28;20047;-73
2022/07/17 11:53:04;;;;;;;12.98;3.53;;;22.20;99.90;;;;;;5063183;28;20037;-73
2022/07/17 11:55:38;;;;;;;7.07;2.95;;;22.20;99.90;;;;;;5048273;28;20029;-72
2022/07/17 11:58:04;;;;;;;8.48;3.33;;;22.20;99.90;;;;;;5068486;28;20522;-72
2022/07/17 12:00:31;;;;;;;8.82;3.15;;;22.30;99.90;;;;;;5063850;28;20033;-70
2022/07/17 12:03:01;;;;;;;9.02;3.83;;;22.40;99.90;;;;;;5069526;28;20032;-72
2022/07/17 12:05:32;;;;;;;8.07;3.30;;;22.50;99.90;;;;;;5068164;28;20356;-71
2022/07/17 12:07:58;;;;;;;7.40;3.60;;;22.50;99.90;;;;;;5061675;28;20114;-73
2022/07/17 12:10:26;;;;;;;8.48;3.03;;;22.40;99.90;;;;;;5064231;28;20595;-75
2022/07/17 12:13:06;;;;;;;8.10;3.55;;;22.30;99.90;;;;;;5065708;28;20050;-71
2022/07/17 12:15:48;;;;;;;9.07;3.45;;;22.40;99.90;;;;;;5066209;28;20036;-73
2022/07/17 12:18:20;;;;;;;11.80;3.17;;;22.50;99.90;;;;;;5060563;28;20487;-69
2022/07/17 12:20:48;;;;;;;8.85;3.47;;;22.60;99.90;;;;;;5073833;28;20040;-70
2022/07/17 12:23:26;;;;;;;10.88;3.33;;;22.70;99.90;;;;;;5055354;28;20044;-70
2022/07/17 12:29:33;;;;;;;10.77;3.63;;;22.90;99.90;;;;;;5063165;28;20031;-69
2022/07/17 12:32:03;;;;;;;11.65;3.03;;;22.90;99.90;;;;;;5060861;28;20404;-70
2022/07/17 12:34:28;;;;;;;8.88;3.60;;;22.90;99.90;;;;;;5052101;28;20045;-69
2022/07/17 12:36:54;;;;;;;10.63;4.03;;;22.80;99.90;;;;;;5071477;28;20044;-70
2022/07/17 12:39:20;;;;;;;7.72;3.33;;;22.80;99.90;;;;;;5086205;28;20072;-71
2022/07/17 12:41:46;;;;;;;11.55;4.00;;;22.80;99.90;;;;;;5061804;28;20128;-70
2022/07/17 12:44:11;;;;;;;10.90;3.72;;;22.70;99.90;;;;;;5056442;28;20431;-69
2022/07/17 12:46:37;;;;;;;10.40;3.72;;;22.80;99.90;;;;;;5045600;28;20123;-71
2022/07/17 12:49:03;;;;;;;14.07;4.22;;;22.80;99.90;;;;;;5057336;28;20036;-68
2022/07/17 12:51:30;;;;;;;10.73;4.18;;;22.90;99.90;;;;;;5078892;28;20059;-71
2022/07/17 12:53:56;;;;;;;8.52;3.92;;;22.90;99.90;;;;;;5061665;28;20048;-72
2022/07/17 12:56:21;;;;;;;15.27;4.00;;;23.00;99.90;;;;;;5051212;28;20196;-73
2022/07/17 12:58:47;;;;;;;15.55;4.20;;;23.00;99.90;;;;;;5055086;28;20037;-72
2022/07/17 13:01:12;;;;;;;12.82;3.85;;;23.00;99.90;;;;;;5049478;28;20431;-73
2022/07/17 13:03:38;;;;;;;12.48;4.28;;;23.00;99.90;;;;;;5055119;28;20059;-73
2022/07/17 13:06:04;;;;;;;9.70;3.83;;;22.90;99.90;;;;;;5056828;28;20047;-71
2022/07/17 13:08:30;;;;;;;9.95;4.10;;;22.90;99.50;;;;;;5059377;28;20079;-73
2022/07/17 13:10:56;;;;;;;9.65;4.15;;;22.80;99.60;;;;;;5064346;28;20048;-71
2022/07/17 13:14:11;;;;;;;13.57;4.28;;;22.90;99.90;;;;;;5069412;28;20124;-71
2022/07/17 13:16:38;;;;;;;12.07;4.32;;;22.90;99.60;;;;;;5050737;28;20047;-71
2022/07/17 13:19:04;;;;;;;10.10;3.60;;;23.00;99.90;;;;;;5066888;28;20049;-69
2022/07/17 13:21:31;;;;;;;9.60;3.80;;;23.10;99.90;;;;;;5065410;28;20043;-69
2022/07/17 13:23:57;;;;;;;8.77;4.30;;;23.10;99.90;;;;;;5067971;28;20037;-70
2022/07/17 13:26:23;;;;;;;10.23;3.72;;;23.30;99.90;;;;;;5069111;28;20562;-72
2022/07/17 13:28:49;;;;;;;11.20;4.30;;;23.40;99.90;;;;;;5068982;28;20040;-70
2022/07/17 13:31:15;;;;;;;9.27;4.43;;;23.40;99.90;;;;;;5067779;28;20368;-71